createdAt,value
2023-05-19T00:02:12.631Z,8.8
2023-05-19T00:07:22.936Z,8.7
2023-05-19T00:12:33.325Z,8.8
2023-05-19T00:17:44.237Z,8.7
2023-05-19T00:22:54.564Z,8.7
2023-05-19T00:28:04.962Z,8.6
2023-05-19T00:33:15.865Z,8.6
2023-05-19T00:38:26.238Z,8.6
2023-05-19T00:43:36.607Z,8.4
2023-05-19T00:48:39.702Z,8.4
2023-05-19T00:53:39.716Z,8.3
2023-05-19T00:59:08.264Z,8.3
2023-05-19T01:04:18.616Z,8.1
2023-05-19T01:09:29.526Z,8
2023-05-19T01:14:39.902Z,7.9
2023-05-19T01:19:50.278Z,7.8
2023-05-19T01:25:01.186Z,7.8
2023-05-19T01:30:50.356Z,7.7
2023-05-19T01:41:11.082Z,7.7
2023-05-19T01:46:22.155Z,7.7
2023-05-19T01:51:32.375Z,7.8
2023-05-19T01:56:42.751Z,7.7
2023-05-19T02:02:32.486Z,7.7
2023-05-19T02:07:42.824Z,7.7
2023-05-19T02:18:03.617Z,7.6
2023-05-19T02:23:14.466Z,7.4
2023-05-19T02:28:39.694Z,7.3
2023-05-19T02:34:14.008Z,7.2
2023-05-19T02:39:24.387Z,7.1
2023-05-19T02:44:35.291Z,6.9
2023-05-19T02:49:45.676Z,6.8
2023-05-19T02:56:13.683Z,6.9
2023-05-19T03:01:24.548Z,6.7
2023-05-19T03:11:45.289Z,6.4
2023-05-19T03:16:55.739Z,6.3
2023-05-19T03:22:06.612Z,6.3
2023-05-19T03:27:16.936Z,6.3
2023-05-19T03:32:27.421Z,6.3
2023-05-19T03:37:37.698Z,6.3
2023-05-19T03:42:48.869Z,6.3
2023-05-19T03:47:58.999Z,6.3
2023-05-19T03:53:09.349Z,6.4
2023-05-19T03:58:19.701Z,6.3
2023-05-19T04:03:30.906Z,6.2
2023-05-19T04:08:39.707Z,6.1
2023-05-19T04:13:51.347Z,6.2
2023-05-19T04:19:01.754Z,6.2
2023-05-19T04:24:12.628Z,6.2
2023-05-19T04:29:23.014Z,6.3
2023-05-19T04:35:12.177Z,6.3
2023-05-19T04:40:22.552Z,6.4
2023-05-19T04:48:39.704Z,7.5
2023-05-19T04:58:41.840Z,8.6
2023-05-19T05:04:23.275Z,9.1
2023-05-19T05:13:39.705Z,9.7
2023-05-19T05:18:40.828Z,10.2
2023-05-19T05:25:08.067Z,10.4
2023-05-19T05:32:40.480Z,10.9
2023-05-19T05:38:39.694Z,11.2
2023-05-19T05:43:39.716Z,11.5
2023-05-19T05:51:15.605Z,12.3
2023-05-19T05:56:24.839Z,12.9
2023-05-19T06:03:39.738Z,12.7
2023-05-19T06:08:39.701Z,12.9
2023-05-19T06:18:39.708Z,13.5
2023-05-19T06:23:39.680Z,14.4
2023-05-19T06:28:39.702Z,14.8
2023-05-19T06:33:39.698Z,14.9
2023-05-19T06:43:39.704Z,14.6
2023-05-19T06:48:39.707Z,14.4
2023-05-19T06:58:39.691Z,15.1
2023-05-19T07:08:39.680Z,16
2023-05-19T07:13:39.704Z,16.8
2023-05-19T07:23:39.711Z,15.9
2023-05-19T07:28:41.607Z,15.6
2023-05-19T07:37:25.788Z,16.8
2023-05-19T07:43:39.696Z,16.6
2023-05-19T07:48:53.415Z,16.6
2023-05-19T08:05:05.512Z,16.7
2023-05-19T08:10:16.851Z,16.3
2023-05-19T08:16:06.600Z,17.4
2023-05-19T08:21:17.991Z,18.6
2023-05-19T08:31:41.358Z,19.3
2023-05-19T08:42:04.183Z,17.7
2023-05-19T08:53:08.166Z,17.9
2023-05-19T08:58:18.302Z,19.1
2023-05-19T09:03:30.350Z,18.7
2023-05-19T09:08:39.679Z,18.4
2023-05-19T09:13:39.702Z,18.6
2023-05-19T09:19:05.062Z,19.3
2023-05-19T09:24:16.982Z,19.6
2023-05-19T09:29:28.913Z,19.8
2023-05-19T09:34:41.393Z,19.9
2023-05-19T09:40:32.651Z,19.7
2023-05-19T09:45:44.666Z,19.9
2023-05-19T09:50:56.550Z,19.3
2023-05-19T09:56:07.977Z,19.1
2023-05-19T10:01:19.990Z,18.8
2023-05-19T10:11:42.815Z,18.9
2023-05-19T10:16:54.743Z,18.6
2023-05-19T10:22:06.129Z,17.9
2023-05-19T10:27:18.086Z,18.3
2023-05-19T10:32:29.716Z,18.4
2023-05-19T10:37:41.440Z,18.6
2023-05-19T10:42:53.401Z,18.4
2023-05-19T10:48:05.893Z,19.9
2023-05-19T10:53:18.863Z,20.8
2023-05-19T10:58:39.706Z,20.2
2023-05-19T11:03:43.284Z,19.4
2023-05-19T11:08:55.754Z,20.8
2023-05-19T11:14:08.220Z,20.1
2023-05-19T11:19:21.473Z,21.3
2023-05-19T11:24:34.244Z,20.9
2023-05-19T11:29:46.707Z,19.4
2023-05-19T11:35:38.185Z,20
2023-05-19T11:40:50.944Z,20.7
2023-05-19T11:46:04.526Z,20.9
2023-05-19T11:51:17.995Z,21.3
2023-05-19T11:56:32.052Z,22.4
2023-05-19T12:01:45.557Z,21.7
2023-05-19T12:07:38.423Z,22.3
2023-05-19T12:12:52.965Z,22.7
2023-05-19T12:18:07.058Z,22.4
2023-05-19T12:23:39.678Z,23.3
2023-05-19T12:28:39.691Z,22.8
2023-05-19T12:33:50.174Z,22.7
2023-05-19T12:39:04.240Z,22.6
2023-05-19T12:44:18.337Z,22.8
2023-05-19T12:49:32.861Z,23.8
2023-05-19T12:54:48.013Z,23.7
2023-05-19T13:00:02.523Z,24.6
2023-05-19T13:05:17.586Z,23.4
2023-05-19T13:10:31.983Z,23.3
2023-05-19T13:17:44.245Z,23.4
2023-05-19T13:23:39.682Z,23.2
2023-05-19T13:28:39.698Z,23.1
2023-05-19T13:35:53.099Z,23.2
2023-05-19T13:43:39.701Z,24.5
2023-05-19T13:53:39.709Z,23.4
2023-05-19T13:58:39.715Z,22.6
2023-05-19T14:03:45.629Z,22.6
2023-05-19T14:11:02.275Z,23
2023-05-19T14:18:39.709Z,23.7
2023-05-19T14:23:39.704Z,24.1
2023-05-19T14:28:54.942Z,23.4
2023-05-19T14:34:57.770Z,24.2
2023-05-19T14:40:21.767Z,24.3
2023-05-19T14:46:41.912Z,24.3
2023-05-19T14:53:39.712Z,24.9
2023-05-19T14:59:38.341Z,23.5
2023-05-19T15:08:39.687Z,22.2
2023-05-19T15:13:39.722Z,22.2
2023-05-19T15:21:11.185Z,21.9
2023-05-19T15:28:39.716Z,21.3
2023-05-19T15:38:39.694Z,21.4
2023-05-19T15:43:48.565Z,21.2
2023-05-19T15:48:59.970Z,20.9
2023-05-19T15:54:10.889Z,20.6
2023-05-19T16:00:00.590Z,20.4
2023-05-19T16:05:50.271Z,20.2
2023-05-19T16:11:01.168Z,20.3
2023-05-19T16:16:12.092Z,20.2
2023-05-19T16:21:22.981Z,20.1
2023-05-19T16:26:33.896Z,20.1
2023-05-19T16:32:24.144Z,20.1
2023-05-19T16:37:34.981Z,20.1
2023-05-19T16:42:45.898Z,20.1
2023-05-19T16:47:56.302Z,20.1
2023-05-19T16:53:07.193Z,19.8
2023-05-19T16:58:39.695Z,19.8
2023-05-19T17:03:39.798Z,19.8
2023-05-19T17:08:39.854Z,19.9
2023-05-19T17:13:50.781Z,19.7
2023-05-19T17:19:01.680Z,19.5
2023-05-19T17:24:12.566Z,19.3
2023-05-19T17:29:23.471Z,19.2
2023-05-19T17:35:13.152Z,19.1
2023-05-19T17:40:24.057Z,18.9
2023-05-19T17:45:34.435Z,18.9
2023-05-19T17:50:45.317Z,18.9
2023-05-19T17:55:56.243Z,18.8
2023-05-19T18:01:45.934Z,18.7
2023-05-19T18:06:56.833Z,18.7
2023-05-19T18:12:07.211Z,18.4
2023-05-19T18:17:18.083Z,18.4
2023-05-19T18:22:28.985Z,18.3
2023-05-19T18:27:39.898Z,18.3
2023-05-19T18:32:50.300Z,18.2
2023-05-19T18:38:01.158Z,18.2
2023-05-19T18:43:12.071Z,17.9
2023-05-19T18:59:23.052Z,17.6
2023-05-19T19:04:33.990Z,17.4
2023-05-19T19:09:44.310Z,17.2
2023-05-19T19:14:55.229Z,17.1
2023-05-19T19:20:06.200Z,16.8
2023-05-19T19:26:34.589Z,16.6
2023-05-19T19:31:45.130Z,16.4
2023-05-19T19:36:55.877Z,16.3
2023-05-19T19:42:45.564Z,16.2
2023-05-19T19:47:55.955Z,16.1
2023-05-19T19:53:06.834Z,15.9
2023-05-19T19:58:17.201Z,15.8
2023-05-19T20:03:39.760Z,15.4
2023-05-19T20:09:17.803Z,15.3
2023-05-19T20:14:28.203Z,15.2
2023-05-19T20:19:39.085Z,15.1
2023-05-19T20:25:28.785Z,14.8
2023-05-19T20:30:39.171Z,14.7
2023-05-19T20:35:50.046Z,14.5
2023-05-19T20:41:00.422Z,14.3
2023-05-19T20:46:11.339Z,14.3
2023-05-19T20:51:22.225Z,14.2
2023-05-19T20:57:50.202Z,14.1
2023-05-19T21:03:01.119Z,14.1
2023-05-19T21:08:11.453Z,13.9
2023-05-19T21:13:22.422Z,13.9
2023-05-19T21:18:33.305Z,13.8
2023-05-19T21:23:39.682Z,13.5
2023-05-19T21:28:39.705Z,13.4
2023-05-19T21:33:39.703Z,13.3
2023-05-19T21:39:15.811Z,13.2
2023-05-19T21:44:26.198Z,13.1
2023-05-19T21:49:37.087Z,12.9
2023-05-19T21:54:47.462Z,12.8
2023-05-19T21:59:58.381Z,12.8
2023-05-19T22:05:08.758Z,12.9
2023-05-19T22:10:19.636Z,12.9
2023-05-19T22:15:30.015Z,12.9
2023-05-19T22:20:40.374Z,12.6
2023-05-19T22:25:51.275Z,12.6
2023-05-19T22:31:01.663Z,12.5
2023-05-19T22:37:30.169Z,12.3
2023-05-19T22:42:40.509Z,12.2
2023-05-19T22:53:39.697Z,12.1
2023-05-19T22:58:51.496Z,12.1
2023-05-19T23:04:01.911Z,12
2023-05-19T23:09:12.760Z,11.9
2023-05-19T23:15:01.930Z,11.8
2023-05-19T23:20:12.824Z,11.8
2023-05-19T23:25:23.213Z,11.7
2023-05-19T23:30:33.568Z,11.6
2023-05-19T23:35:44.488Z,11.6
2023-05-19T23:40:54.913Z,11.6
2023-05-19T23:46:44.641Z,11.7
2023-05-19T23:52:33.731Z,11.7
2023-05-19T23:57:44.659Z,11.7
